Polar Discovery — WACW — position and weather

sailwx.info

Track history (hours):
 
Tides and Currents Weather Stations Pressure Air Temp Water Temp Dewpoint Dewpoint Depression Visibility Wind Speed Wind Dir Waves Ship Positions

Polar Discovery

Owner: Polar Tankers, Inc., Bartlesville, OK. More information available from US FCC via Universal Licensing System and Coast Guard Vessel Documentation Center.

Last reported at 2018-Feb-22 19:00 UTC. Time now 2018-Feb-25 01:35 UTC.
Position N 56°54' W 142°30'.

Type: Tanker. MMSI: 369272000.

Wind from 220 at 18 knots

Barometer 1021.3 mb
Air temperature 5.6 ° C
Visibility: greater than 10.8 NM
Dewpoint 3.9 ° C
Water temperature 6.0 ° C

Date/timePositionNaut miles runAvg speedWind from/ knotsBaromVisibWave heightAir tempDewpointWater temp
2018-Feb-22 19:00N 56°54' W 142°30'56211.5 220 / 181021.310.8 5.6 3.9 6.0
2018-Feb-20 18:00N 49°30' W 132°54'10611.7 360 / 201022.410.8 7.2 3.9 8.0
2018-Feb-20 09:00N 48°12' W 131°06'11512.8 310 / 201018.910.8 6.5 4.4 8.0
2018-Feb-20 00:00N 46°30' W 129°48'6911.4 340 / 221025.710.8 7.5 1.6 9.0
2018-Feb-19 18:00N 45°30' W 129°00'106 5.0 360 / 301026.010.8 7.0-2.3 9.0
2018-Feb-18 21:00N 44°00' W 127°42'15 4.9 310 / 361014.710.8 7.6 0.610.0
2018-Feb-18 18:00N 43°48' W 127°30'82 9.1 300 / 401015.110.8 7.9-0.010.0
2018-Feb-18 09:00N 42°36' W 126°36'19613.1 320 / 311016.610.8 9.1 4.111.0
2018-Feb-17 18:00N 39°30' W 125°12'6612.2 350 / 241023.610.8 12.111.912.0
2018-Feb-17 12:34N 38°32' W 124°30'114.1
2018-Feb-17 12:30N 38°31' W 124°29'714.1
2018-Feb-17 12:00N 38°26' W 124°24'714.3
2018-Feb-17 11:30N 38°21' W 124°18'714.2
2018-Feb-17 11:00N 38°15' W 124°12'714.1
2018-Feb-17 10:30N 38°10' W 124°06'714.3
2018-Feb-17 10:00N 38°04' W 124°01'714.2
2018-Feb-17 09:29N 37°59' W 123°55'714.0
2018-Feb-17 09:00N 37°54' W 123°49'714.1
2018-Feb-17 08:30N 37°48' W 123°43'714.0
2018-Feb-17 08:00N 37°43' W 123°38'813.7
2018-Feb-17 07:27N 37°40' W 123°29'614.0
2018-Feb-17 07:01N 37°38' W 123°21'714.3
2018-Feb-17 06:30N 37°36' W 123°13'713.8
2018-Feb-17 06:00N 37°34' W 123°04'816.0
2018-Feb-17 05:30N 37°39' W 122°56'815.9
2018-Feb-17 05:00N 37°43' W 122°47'612.8
2018-Feb-17 04:30N 37°46' W 122°40'612.1
2018-Feb-17 04:00N 37°48' W 122°33'611.2
2018-Feb-17 03:30N 37°51' W 122°27'4 9.0
2018-Feb-17 03:00N 37°55' W 122°27'714.3
2018-Feb-17 02:31N 38°01' W 122°23'4 8.9
2018-Feb-17 02:01N 38°03' W 122°18'612.1
2018-Feb-17 01:30N 38°02' W 122°10'2 0.1
2018-Feb-16 08:43N 38°03' W 122°08'0 1.0
2018-Feb-16 08:30N 38°03' W 122°08'2 3.4
2018-Feb-16 08:00N 38°02' W 122°10'612.0
2018-Feb-16 07:30N 38°04' W 122°17'510.4
2018-Feb-16 07:01N 38°01' W 122°23'714.6
2018-Feb-16 06:31N 37°55' W 122°27'1 2.3
2018-Feb-16 06:00N 37°55' W 122°25'1 1.8
2018-Feb-16 05:28N 37°56' W 122°25'0 0.0
2018-Feb-16 04:55N 37°56' W 122°25'0 0.0
2018-Feb-16 04:28N 37°56' W 122°25'0 0.0
2018-Feb-16 03:58N 37°56' W 122°25'0 0.0
2018-Feb-16 03:31N 37°56' W 122°25'0 0.0
2018-Feb-16 03:01N 37°56' W 122°25'0 0.0
2018-Feb-16 02:31N 37°56' W 122°25'0 0.0
2018-Feb-16 01:58N 37°56' W 122°25'0 0.0
2018-Feb-16 01:28N 37°56' W 122°25'0 0.0
2018-Feb-16 01:01N 37°56' W 122°25'0 0.0
2018-Feb-16 00:31N 37°56' W 122°25'0 0.0
2018-Feb-16 00:01N 37°56' W 122°25'0 0.0
2018-Feb-15 23:31N 37°56' W 122°25'0 0.0
2018-Feb-15 22:58N 37°56' W 122°25'0 0.0
2018-Feb-15 22:31N 37°56' W 122°25'0 0.0
2018-Feb-15 22:01N 37°56' W 122°25'0 0.0
2018-Feb-15 21:28N 37°56' W 122°25'0 0.0
2018-Feb-15 20:58N 37°56' W 122°25'0 0.0
2018-Feb-15 20:31N 37°56' W 122°25'0 0.0
2018-Feb-15 20:01N 37°56' W 122°25'0 0.0
2018-Feb-15 19:28N 37°56' W 122°25'0 0.0
2018-Feb-15 19:01N 37°56' W 122°25'0 0.0
2018-Feb-15 18:31N 37°56' W 122°25'0 0.0
2018-Feb-15 17:58N 37°56' W 122°25'0 0.1
2018-Feb-15 17:30N 37°56' W 122°25'1 1.8
2018-Feb-15 17:00N 37°55' W 122°25'4 7.5
2018-Feb-15 16:31N 37°51' W 122°24'714.5
2018-Feb-15 16:00N 37°47' W 122°32'713.6
2018-Feb-15 15:30N 37°45' W 122°40'612.1
2018-Feb-15 15:01N 37°41' W 122°47'611.4
2018-Feb-15 14:30N 37°38' W 122°53'611.5
2018-Feb-15 14:00N 37°35' W 122°58'510.8
2018-Feb-15 13:30N 37°33' W 123°05'611.4
2018-Feb-15 12:59N 37°34' W 123°12'611.5
2018-Feb-15 12:30N 37°36' W 123°19'711.6
2018-Feb-15 11:56N 37°38' W 123°26'711.7
2018-Feb-15 11:22N 37°40' W 123°34'411.6
2018-Feb-15 11:00N 37°41' W 123°39'711.5
2018-Feb-15 10:26N 37°43' W 123°47'611.4
2018-Feb-15 09:56N 37°45' W 123°54'68214.9
2018-Feb-13 12:00N 47°54' W 130°54'   240 / 151026.9 5.4 7.0 7.0 9.0
Track history (hours):
 
Tides and Currents Weather Stations Pressure Air Temp Water Temp Dewpoint Dewpoint Depression Visibility Wind Speed Wind Dir Waves Ship Positions

Polar Discovery

Owner: Polar Tankers, Inc., Bartlesville, OK. More information available from US FCC via Universal Licensing System and Coast Guard Vessel Documentation Center.

Last reported at 2018-Feb-22 19:00 UTC. Time now 2018-Feb-25 01:35 UTC.
Position N 56°54' W 142°30'.

Type: Tanker. MMSI: 369272000.

Wind from 220 at 18 knots

Barometer 1021.3 mb
Air temperature 5.6 ° C
Visibility: greater than 10.8 NM
Dewpoint 3.9 ° C
Water temperature 6.0 ° C

Date/timePositionNaut miles runAvg speedWind from/ knotsBaromVisibWave heightAir tempDewpointWater temp
2018-Feb-22 19:00N 56°54' W 142°30'56211.5 220 / 181021.310.8 5.6 3.9 6.0
2018-Feb-20 18:00N 49°30' W 132°54'10611.7 360 / 201022.410.8 7.2 3.9 8.0
2018-Feb-20 09:00N 48°12' W 131°06'11512.8 310 / 201018.910.8 6.5 4.4 8.0
2018-Feb-20 00:00N 46°30' W 129°48'6911.4 340 / 221025.710.8 7.5 1.6 9.0
2018-Feb-19 18:00N 45°30' W 129°00'106 5.0 360 / 301026.010.8 7.0-2.3 9.0
2018-Feb-18 21:00N 44°00' W 127°42'15 4.9 310 / 361014.710.8 7.6 0.610.0
2018-Feb-18 18:00N 43°48' W 127°30'82 9.1 300 / 401015.110.8 7.9-0.010.0
2018-Feb-18 09:00N 42°36' W 126°36'19613.1 320 / 311016.610.8 9.1 4.111.0
2018-Feb-17 18:00N 39°30' W 125°12'6612.2 350 / 241023.610.8 12.111.912.0
2018-Feb-17 12:34N 38°32' W 124°30'114.1
2018-Feb-17 12:30N 38°31' W 124°29'714.1
2018-Feb-17 12:00N 38°26' W 124°24'714.3
2018-Feb-17 11:30N 38°21' W 124°18'714.2
2018-Feb-17 11:00N 38°15' W 124°12'714.1
2018-Feb-17 10:30N 38°10' W 124°06'714.3
2018-Feb-17 10:00N 38°04' W 124°01'714.2
2018-Feb-17 09:29N 37°59' W 123°55'714.0
2018-Feb-17 09:00N 37°54' W 123°49'714.1
2018-Feb-17 08:30N 37°48' W 123°43'714.0
2018-Feb-17 08:00N 37°43' W 123°38'813.7
2018-Feb-17 07:27N 37°40' W 123°29'614.0
2018-Feb-17 07:01N 37°38' W 123°21'714.3
2018-Feb-17 06:30N 37°36' W 123°13'713.8
2018-Feb-17 06:00N 37°34' W 123°04'816.0
2018-Feb-17 05:30N 37°39' W 122°56'815.9
2018-Feb-17 05:00N 37°43' W 122°47'612.8
2018-Feb-17 04:30N 37°46' W 122°40'612.1
2018-Feb-17 04:00N 37°48' W 122°33'611.2
2018-Feb-17 03:30N 37°51' W 122°27'4 9.0
2018-Feb-17 03:00N 37°55' W 122°27'714.3
2018-Feb-17 02:31N 38°01' W 122°23'4 8.9
2018-Feb-17 02:01N 38°03' W 122°18'612.1
2018-Feb-17 01:30N 38°02' W 122°10'2 0.1
2018-Feb-16 08:43N 38°03' W 122°08'0 1.0
2018-Feb-16 08:30N 38°03' W 122°08'2 3.4
2018-Feb-16 08:00N 38°02' W 122°10'612.0
2018-Feb-16 07:30N 38°04' W 122°17'510.4
2018-Feb-16 07:01N 38°01' W 122°23'714.6
2018-Feb-16 06:31N 37°55' W 122°27'1 2.3
2018-Feb-16 06:00N 37°55' W 122°25'1 1.8
2018-Feb-16 05:28N 37°56' W 122°25'0 0.0
2018-Feb-16 04:55N 37°56' W 122°25'0 0.0
2018-Feb-16 04:28N 37°56' W 122°25'0 0.0
2018-Feb-16 03:58N 37°56' W 122°25'0 0.0
2018-Feb-16 03:31N 37°56' W 122°25'0 0.0
2018-Feb-16 03:01N 37°56' W 122°25'0 0.0
2018-Feb-16 02:31N 37°56' W 122°25'0 0.0
2018-Feb-16 01:58N 37°56' W 122°25'0 0.0
2018-Feb-16 01:28N 37°56' W 122°25'0 0.0
2018-Feb-16 01:01N 37°56' W 122°25'0 0.0
2018-Feb-16 00:31N 37°56' W 122°25'0 0.0
2018-Feb-16 00:01N 37°56' W 122°25'0 0.0
2018-Feb-15 23:31N 37°56' W 122°25'0 0.0
2018-Feb-15 22:58N 37°56' W 122°25'0 0.0
2018-Feb-15 22:31N 37°56' W 122°25'0 0.0
2018-Feb-15 22:01N 37°56' W 122°25'0 0.0
2018-Feb-15 21:28N 37°56' W 122°25'0 0.0
2018-Feb-15 20:58N 37°56' W 122°25'0 0.0
2018-Feb-15 20:31N 37°56' W 122°25'0 0.0
2018-Feb-15 20:01N 37°56' W 122°25'0 0.0
2018-Feb-15 19:28N 37°56' W 122°25'0 0.0
2018-Feb-15 19:01N 37°56' W 122°25'0 0.0
2018-Feb-15 18:31N 37°56' W 122°25'0 0.0
2018-Feb-15 17:58N 37°56' W 122°25'0 0.1
2018-Feb-15 17:30N 37°56' W 122°25'1 1.8
2018-Feb-15 17:00N 37°55' W 122°25'4 7.5
2018-Feb-15 16:31N 37°51' W 122°24'714.5
2018-Feb-15 16:00N 37°47' W 122°32'713.6
2018-Feb-15 15:30N 37°45' W 122°40'612.1
2018-Feb-15 15:01N 37°41' W 122°47'611.4
2018-Feb-15 14:30N 37°38' W 122°53'611.5
2018-Feb-15 14:00N 37°35' W 122°58'510.8
2018-Feb-15 13:30N 37°33' W 123°05'611.4
2018-Feb-15 12:59N 37°34' W 123°12'611.5
2018-Feb-15 12:30N 37°36' W 123°19'711.6
2018-Feb-15 11:56N 37°38' W 123°26'711.7
2018-Feb-15 11:22N 37°40' W 123°34'411.6
2018-Feb-15 11:00N 37°41' W 123°39'711.5
2018-Feb-15 10:26N 37°43' W 123°47'611.4
2018-Feb-15 09:56N 37°45' W 123°54'68214.9
2018-Feb-13 12:00N 47°54' W 130°54'   240 / 151026.9 5.4 7.0 7.0 9.0

Dump ship's entire track history